sensor_id;sensor_type;location;lat;lon;timestamp;P1;durP1;ratioP1;P2;durP2;ratioP2
58896;SDS011;44677;52.378;10.400;2022-11-20T13:56:23;8.40;;;6.60;;
58896;SDS011;44677;52.378;10.400;2022-11-20T13:59:24;8.80;;;6.10;;
58896;SDS011;44677;52.378;10.400;2022-11-20T14:02:11;6.90;;;5.20;;
58896;SDS011;44677;52.378;10.400;2022-11-20T14:04:48;8.50;;;6.00;;
58896;SDS011;44677;52.378;10.400;2022-11-20T14:07:16;7.60;;;5.40;;
58896;SDS011;44677;52.378;10.400;2022-11-20T14:09:50;10.00;;;6.20;;
58896;SDS011;44677;52.378;10.400;2022-11-20T14:12:17;8.80;;;5.70;;
58896;SDS011;44677;52.378;10.400;2022-11-20T14:14:51;9.10;;;5.90;;
58896;SDS011;44677;52.378;10.400;2022-11-20T14:17:19;6.60;;;5.60;;
58896;SDS011;44677;52.378;10.400;2022-11-20T14:19:46;8.10;;;5.70;;
58896;SDS011;44677;52.378;10.400;2022-11-20T14:24:39;7.90;;;5.60;;
58896;SDS011;44677;52.378;10.400;2022-11-20T14:27:04;7.30;;;5.80;;
58896;SDS011;44677;52.378;10.400;2022-11-20T14:29:33;9.80;;;6.30;;
58896;SDS011;44677;52.378;10.400;2022-11-20T14:32:00;7.70;;;5.20;;
58896;SDS011;44677;52.378;10.400;2022-11-20T14:34:27;6.80;;;5.40;;
58896;SDS011;44677;52.378;10.400;2022-11-20T14:36:58;8.70;;;5.50;;
58896;SDS011;44677;52.378;10.400;2022-11-20T14:41:58;11.20;;;7.50;;
58896;SDS011;44677;52.378;10.400;2022-11-20T14:44:26;11.90;;;8.40;;
58896;SDS011;44677;52.378;10.400;2022-11-20T14:46:53;13.10;;;9.30;;
58896;SDS011;44677;52.378;10.400;2022-11-20T14:49:20;13.60;;;9.00;;
58896;SDS011;44677;52.378;10.400;2022-11-20T14:51:45;12.40;;;9.00;;
58896;SDS011;44677;52.378;10.400;2022-11-20T14:54:15;13.30;;;8.40;;
58896;SDS011;44677;52.378;10.400;2022-11-20T14:56:54;10.40;;;7.70;;
58896;SDS011;44677;52.378;10.400;2022-11-20T14:59:27;10.70;;;8.40;;
58896;SDS011;44677;52.378;10.400;2022-11-20T15:01:57;12.60;;;8.30;;
58896;SDS011;44677;52.378;10.400;2022-11-20T15:04:28;10.70;;;8.10;;
58896;SDS011;44677;52.378;10.400;2022-11-20T15:06:54;12.00;;;8.30;;
58896;SDS011;44677;52.378;10.400;2022-11-20T15:09:21;12.50;;;8.40;;
58896;SDS011;44677;52.378;10.400;2022-11-20T15:11:54;12.10;;;8.10;;
58896;SDS011;44677;52.378;10.400;2022-11-20T15:14:21;12.00;;;8.70;;
58896;SDS011;44677;52.378;10.400;2022-11-20T15:16:47;12.00;;;8.60;;
58896;SDS011;44677;52.378;10.400;2022-11-20T15:19:16;11.90;;;8.20;;
58896;SDS011;44677;52.378;10.400;2022-11-20T15:21:43;12.20;;;8.70;;
58896;SDS011;44677;52.378;10.400;2022-11-20T15:24:08;12.70;;;8.80;;
58896;SDS011;44677;52.378;10.400;2022-11-20T15:26:34;13.30;;;9.00;;
58896;SDS011;44677;52.378;10.400;2022-11-20T15:29:00;12.90;;;9.00;;
58896;SDS011;44677;52.378;10.400;2022-11-20T15:31:25;16.30;;;9.30;;
58896;SDS011;44677;52.378;10.400;2022-11-20T15:33:50;14.20;;;8.50;;
58896;SDS011;44677;52.378;10.400;2022-11-20T15:36:16;13.50;;;8.80;;
58896;SDS011;44677;52.378;10.400;2022-11-20T15:38:42;14.50;;;9.60;;
58896;SDS011;44677;52.378;10.400;2022-11-20T15:41:07;13.90;;;9.30;;
58896;SDS011;44677;52.378;10.400;2022-11-20T15:43:33;13.10;;;9.30;;
58896;SDS011;44677;52.378;10.400;2022-11-20T15:46:05;13.70;;;9.40;;
58896;SDS011;44677;52.378;10.400;2022-11-20T15:48:49;13.80;;;8.60;;
58896;SDS011;44677;52.378;10.400;2022-11-20T15:51:30;11.10;;;8.10;;
58896;SDS011;44677;52.378;10.400;2022-11-20T15:54:01;13.20;;;9.00;;
58896;SDS011;44677;52.378;10.400;2022-11-20T15:56:34;12.20;;;8.70;;
58896;SDS011;44677;52.378;10.400;2022-11-20T15:58:59;13.70;;;10.10;;
58896;SDS011;44677;52.378;10.400;2022-11-20T16:01:25;13.80;;;9.10;;
58896;SDS011;44677;52.378;10.400;2022-11-20T16:03:50;15.40;;;9.70;;
58896;SDS011;44677;52.378;10.400;2022-11-20T16:06:16;13.40;;;9.20;;
58896;SDS011;44677;52.378;10.400;2022-11-20T16:08:41;10.70;;;7.70;;
58896;SDS011;44677;52.378;10.400;2022-11-20T16:11:09;12.50;;;7.90;;
58896;SDS011;44677;52.378;10.400;2022-11-20T16:13:36;9.80;;;7.40;;
58896;SDS011;44677;52.378;10.400;2022-11-20T16:16:29;10.50;;;7.30;;
58896;SDS011;44677;52.378;10.400;2022-11-20T16:19:03;11.80;;;8.70;;
58896;SDS011;44677;52.378;10.400;2022-11-20T16:21:29;12.70;;;9.20;;
58896;SDS011;44677;52.378;10.400;2022-11-20T16:24:01;15.30;;;9.60;;
58896;SDS011;44677;52.378;10.400;2022-11-20T16:26:31;14.70;;;8.80;;
58896;SDS011;44677;52.378;10.400;2022-11-20T16:29:00;16.30;;;10.00;;
58896;SDS011;44677;52.378;10.400;2022-11-20T16:31:28;16.90;;;11.50;;
58896;SDS011;44677;52.378;10.400;2022-11-20T16:33:55;19.50;;;14.60;;
58896;SDS011;44677;52.378;10.400;2022-11-20T16:36:22;21.60;;;17.30;;
58896;SDS011;44677;52.378;10.400;2022-11-20T16:38:52;22.20;;;16.90;;
58896;SDS011;44677;52.378;10.400;2022-11-20T16:41:19;14.80;;;10.70;;
58896;SDS011;44677;52.378;10.400;2022-11-20T16:43:45;16.00;;;10.30;;
58896;SDS011;44677;52.378;10.400;2022-11-20T16:48:38;14.30;;;10.20;;
58896;SDS011;44677;52.378;10.400;2022-11-20T16:51:03;14.70;;;10.10;;
58896;SDS011;44677;52.378;10.400;2022-11-20T16:53:33;12.10;;;8.50;;
58896;SDS011;44677;52.378;10.400;2022-11-20T16:56:07;15.80;;;9.90;;
58896;SDS011;44677;52.378;10.400;2022-11-20T16:58:38;12.40;;;9.50;;
58896;SDS011;44677;52.378;10.400;2022-11-20T17:01:07;15.50;;;10.00;;
58896;SDS011;44677;52.378;10.400;2022-11-20T17:03:38;14.00;;;9.50;;
58896;SDS011;44677;52.378;10.400;2022-11-20T17:06:15;14.80;;;11.20;;
58896;SDS011;44677;52.378;10.400;2022-11-20T17:08:42;15.30;;;10.30;;
58896;SDS011;44677;52.378;10.400;2022-11-20T17:11:10;17.10;;;11.90;;
58896;SDS011;44677;52.378;10.400;2022-11-20T17:13:36;18.70;;;13.80;;
58896;SDS011;44677;52.378;10.400;2022-11-20T17:16:03;30.40;;;18.40;;
58896;SDS011;44677;52.378;10.400;2022-11-20T17:18:30;27.80;;;17.10;;
58896;SDS011;44677;52.378;10.400;2022-11-20T17:20:57;29.50;;;19.80;;
58896;SDS011;44677;52.378;10.400;2022-11-20T17:23:27;28.70;;;19.70;;
58896;SDS011;44677;52.378;10.400;2022-11-20T17:25:59;22.50;;;15.40;;
58896;SDS011;44677;52.378;10.400;2022-11-20T17:28:28;17.00;;;12.50;;
58896;SDS011;44677;52.378;10.400;2022-11-20T17:31:03;24.80;;;17.40;;
58896;SDS011;44677;52.378;10.400;2022-11-20T17:33:32;35.70;;;23.40;;
58896;SDS011;44677;52.378;10.400;2022-11-20T17:35:59;28.00;;;19.10;;
58896;SDS011;44677;52.378;10.400;2022-11-20T17:38:24;35.90;;;22.70;;
58896;SDS011;44677;52.378;10.400;2022-11-20T17:40:50;25.40;;;17.90;;
58896;SDS011;44677;52.378;10.400;2022-11-20T17:43:15;22.30;;;15.10;;
58896;SDS011;44677;52.378;10.400;2022-11-20T17:45:41;19.50;;;13.70;;
58896;SDS011;44677;52.378;10.400;2022-11-20T17:48:07;19.50;;;12.90;;
58896;SDS011;44677;52.378;10.400;2022-11-20T17:50:32;19.70;;;13.30;;
58896;SDS011;44677;52.378;10.400;2022-11-20T17:52:57;19.90;;;14.10;;
58896;SDS011;44677;52.378;10.400;2022-11-20T17:55:23;22.30;;;15.30;;
58896;SDS011;44677;52.378;10.400;2022-11-20T17:57:48;24.20;;;16.50;;
58896;SDS011;44677;52.378;10.400;2022-11-20T18:00:17;22.10;;;16.20;;
58896;SDS011;44677;52.378;10.400;2022-11-20T18:02:46;22.30;;;14.90;;
58896;SDS011;44677;52.378;10.400;2022-11-20T18:05:11;23.40;;;17.00;;
58896;SDS011;44677;52.378;10.400;2022-11-20T18:07:37;25.10;;;17.70;;
58896;SDS011;44677;52.378;10.400;2022-11-20T18:10:03;24.30;;;17.60;;
58896;SDS011;44677;52.378;10.400;2022-11-20T18:12:29;24.20;;;17.60;;
58896;SDS011;44677;52.378;10.400;2022-11-20T18:14:54;28.70;;;18.50;;
58896;SDS011;44677;52.378;10.400;2022-11-20T18:17:20;26.10;;;17.30;;
58896;SDS011;44677;52.378;10.400;2022-11-20T18:19:45;21.10;;;14.70;;
58896;SDS011;44677;52.378;10.400;2022-11-20T18:22:12;19.00;;;12.60;;
58896;SDS011;44677;52.378;10.400;2022-11-20T18:27:05;15.70;;;11.20;;
58896;SDS011;44677;52.378;10.400;2022-11-20T18:29:31;17.10;;;11.50;;
58896;SDS011;44677;52.378;10.400;2022-11-20T18:31:57;28.60;;;16.40;;
58896;SDS011;44677;52.378;10.400;2022-11-20T18:34:23;40.40;;;23.40;;
58896;SDS011;44677;52.378;10.400;2022-11-20T18:36:48;29.00;;;18.80;;
58896;SDS011;44677;52.378;10.400;2022-11-20T18:39:14;23.90;;;16.90;;
58896;SDS011;44677;52.378;10.400;2022-11-20T18:41:40;28.40;;;17.80;;
58896;SDS011;44677;52.378;10.400;2022-11-20T18:44:25;36.00;;;19.90;;
58896;SDS011;44677;52.378;10.400;2022-11-20T18:47:12;34.50;;;19.80;;
58896;SDS011;44677;52.378;10.400;2022-11-20T18:49:40;26.10;;;16.30;;
58896;SDS011;44677;52.378;10.400;2022-11-20T18:52:06;22.90;;;14.40;;
58896;SDS011;44677;52.378;10.400;2022-11-20T18:54:33;23.80;;;14.00;;
58896;SDS011;44677;52.378;10.400;2022-11-20T18:57:00;15.70;;;11.80;;
58896;SDS011;44677;52.378;10.400;2022-11-20T18:59:25;14.60;;;10.90;;
58896;SDS011;44677;52.378;10.400;2022-11-20T19:01:51;15.80;;;10.70;;
58896;SDS011;44677;52.378;10.400;2022-11-20T19:04:16;15.90;;;10.30;;
58896;SDS011;44677;52.378;10.400;2022-11-20T19:06:43;14.60;;;10.70;;
58896;SDS011;44677;52.378;10.400;2022-11-20T19:11:36;14.40;;;9.70;;
58896;SDS011;44677;52.378;10.400;2022-11-20T19:14:02;14.10;;;9.30;;
58896;SDS011;44677;52.378;10.400;2022-11-20T19:16:27;12.00;;;8.60;;
58896;SDS011;44677;52.378;10.400;2022-11-20T19:18:53;12.40;;;8.80;;
58896;SDS011;44677;52.378;10.400;2022-11-20T19:21:20;12.40;;;9.10;;
58896;SDS011;44677;52.378;10.400;2022-11-20T19:23:49;14.60;;;9.70;;
58896;SDS011;44677;52.378;10.400;2022-11-20T19:26:15;14.00;;;9.30;;
58896;SDS011;44677;52.378;10.400;2022-11-20T19:28:41;13.40;;;9.30;;
58896;SDS011;44677;52.378;10.400;2022-11-20T19:31:08;16.90;;;10.30;;
58896;SDS011;44677;52.378;10.400;2022-11-20T19:33:35;14.50;;;10.00;;
58896;SDS011;44677;52.378;10.400;2022-11-20T19:36:17;15.70;;;9.50;;
58896;SDS011;44677;52.378;10.400;2022-11-20T19:38:45;15.70;;;11.10;;
58896;SDS011;44677;52.378;10.400;2022-11-20T19:41:12;18.20;;;12.10;;
58896;SDS011;44677;52.378;10.400;2022-11-20T19:43:39;17.10;;;12.10;;
58896;SDS011;44677;52.378;10.400;2022-11-20T19:46:04;19.90;;;13.30;;
58896;SDS011;44677;52.378;10.400;2022-11-20T19:48:30;25.40;;;17.10;;
58896;SDS011;44677;52.378;10.400;2022-11-20T19:50:56;23.00;;;14.50;;
58896;SDS011;44677;52.378;10.400;2022-11-20T19:53:22;25.50;;;15.30;;
58896;SDS011;44677;52.378;10.400;2022-11-20T19:55:55;23.80;;;14.40;;
58896;SDS011;44677;52.378;10.400;2022-11-20T19:58:24;21.30;;;14.00;;
58896;SDS011;44677;52.378;10.400;2022-11-20T20:00:49;24.10;;;15.80;;
58896;SDS011;44677;52.378;10.400;2022-11-20T20:03:21;24.90;;;15.40;;
58896;SDS011;44677;52.378;10.400;2022-11-20T20:05:46;24.30;;;15.70;;
58896;SDS011;44677;52.378;10.400;2022-11-20T20:08:12;25.90;;;16.10;;
58896;SDS011;44677;52.378;10.400;2022-11-20T20:10:38;26.40;;;15.70;;
58896;SDS011;44677;52.378;10.400;2022-11-20T20:13:04;26.10;;;18.30;;
58896;SDS011;44677;52.378;10.400;2022-11-20T20:15:31;22.00;;;14.90;;
58896;SDS011;44677;52.378;10.400;2022-11-20T20:17:57;20.30;;;13.90;;
58896;SDS011;44677;52.378;10.400;2022-11-20T20:20:35;24.80;;;15.30;;
58896;SDS011;44677;52.378;10.400;2022-11-20T20:23:15;22.90;;;14.80;;
58896;SDS011;44677;52.378;10.400;2022-11-20T20:25:41;22.90;;;15.40;;
58896;SDS011;44677;52.378;10.400;2022-11-20T20:28:07;25.10;;;15.00;;
58896;SDS011;44677;52.378;10.400;2022-11-20T20:30:34;23.20;;;14.30;;
58896;SDS011;44677;52.378;10.400;2022-11-20T20:35:27;23.50;;;15.40;;
58896;SDS011;44677;52.378;10.400;2022-11-20T20:37:52;22.40;;;15.40;;
58896;SDS011;44677;52.378;10.400;2022-11-20T20:40:18;23.10;;;15.50;;
58896;SDS011;44677;52.378;10.400;2022-11-20T20:42:57;22.60;;;14.80;;
58896;SDS011;44677;52.378;10.400;2022-11-20T20:45:23;21.70;;;14.20;;
58896;SDS011;44677;52.378;10.400;2022-11-20T20:47:49;21.80;;;14.00;;
58896;SDS011;44677;52.378;10.400;2022-11-20T20:50:37;22.50;;;14.00;;
58896;SDS011;44677;52.378;10.400;2022-11-20T20:53:05;22.50;;;13.90;;
58896;SDS011;44677;52.378;10.400;2022-11-20T20:55:30;23.50;;;13.60;;
58896;SDS011;44677;52.378;10.400;2022-11-20T20:58:00;23.00;;;14.50;;
